Time;durP1;ratioP1;P1;durP2;ratioP2;P2;SDS_P1;SDS_P2;PMS_P1;PMS_P2;Temp;Humidity;BMP_temperature;BMP_pressure;BME280_temperature;BME280_humidity;BME280_pressure;Samples;Min_cycle;Max_cycle;Signal;HPM_P1;HPM_P2
2022/07/05 00:00:37;;;;;;;;;;;;;;;;;;2074789;28;19987;-87
2022/07/05 00:01:37;;;;;;;;;;;;;;;;;;2074897;28;19952;-85
2022/07/05 00:02:37;;;;;;;;;;;;;;;;;;2074830;28;19996;-85
2022/07/05 00:03:38;;;;;;;;;;;;;;;;;;2074646;28;19926;-84
2022/07/05 00:04:41;;;;;;;;;;;;;;;;;;2074844;28;20243;-83
2022/07/05 00:05:41;;;;;;;;;;;;;;;;;;2074845;28;19987;-83
2022/07/05 00:07:17;;;;;;;;;;;;;;;;;;2074794;28;20370;-84
2022/07/05 00:08:02;;;;;;;;;;;;;;;;;;2074593;28;19984;-83
2022/07/05 00:09:02;;;;;;;;;;;;;;;;;;2074603;28;20256;-85
2022/07/05 00:10:03;;;;;;;;;;;;;;;;;;2074217;28;20008;-84
2022/07/05 00:11:03;;;;;;;;;;;;;;;;;;2074244;28;19913;-83
2022/07/05 00:12:04;;;;;;;;;;;;;;;;;;2074880;28;19918;-85
2022/07/05 00:13:04;;;;;;;;;;;;;;;;;;2074573;28;20392;-83
2022/07/05 00:14:05;;;;;;;;;;;;;;;;;;2074672;28;19925;-83
2022/07/05 00:15:05;;;;;;;;;;;;;;;;;;2074280;28;20295;-86
2022/07/05 00:16:06;;;;;;;;;;;;;;;;;;2073916;28;19914;-84
2022/07/05 00:17:06;;;;;;;;;;;;;;;;;;2074220;28;20545;-84
2022/07/05 00:18:06;;;;;;;;;;;;;;;;;;2066054;28;19943;-85
2022/07/05 00:19:06;;;;;;;;;;;;;;;;;;2074440;28;19955;-85
2022/07/05 00:20:09;;;;;;;;;;;;;;;;;;2074559;28;19913;-83
2022/07/05 00:21:10;;;;;;;;;;;;;;;;;;2074743;28;19924;-84
2022/07/05 00:22:10;;;;;;;;;;;;;;;;;;2074772;28;19924;-85
2022/07/05 00:23:10;;;;;;;;;;;;;;;;;;2074182;28;20370;-85
2022/07/05 00:24:10;;;;;;;;;;;;;;;;;;2065562;28;19961;-85
2022/07/05 00:25:11;;;;;;;;;;;;;;;;;;2065998;28;20012;-84
2022/07/05 00:26:11;;;;;;;;;;;;;;;;;;2074257;28;19913;-86
2022/07/05 00:27:12;;;;;;;;;;;;;;;;;;2074295;28;19961;-86
2022/07/05 00:28:13;;;;;;;;;;;;;;;;;;2074117;28;19961;-84
2022/07/05 00:29:16;;;;;;;;;;;;;;;;;;2074621;28;19914;-84
2022/07/05 00:30:16;;;;;;;;;;;;;;;;;;2074071;28;19945;-85
2022/07/05 00:31:22;;;;;;;;;;;;;;;;;;2074119;28;20282;-83
2022/07/05 00:32:22;;;;;;;;;;;;;;;;;;2073918;28;19931;-83
2022/07/05 00:33:22;;;;;;;;;;;;;;;;;;2073991;28;19917;-84
2022/07/05 00:34:23;;;;;;;;;;;;;;;;;;2074522;28;19914;-83
2022/07/05 00:35:23;;;;;;;;;;;;;;;;;;2074044;28;20374;-84
2022/07/05 00:36:23;;;;;;;;;;;;;;;;;;2074098;28;20290;-85
2022/07/05 00:37:24;;;;;;;;;;;;;;;;;;2074329;28;20357;-84
2022/07/05 00:38:24;;;;;;;;;;;;;;;;;;2074588;28;19913;-85
2022/07/05 00:39:26;;;;;;;;;;;;;;;;;;2074417;28;20020;-85
2022/07/05 00:40:26;;;;;;;;;;;;;;;;;;2074422;28;19924;-83
2022/07/05 00:41:26;;;;;;;;;;;;;;;;;;2074277;28;19936;-84
2022/07/05 00:42:27;;;;;;;;;;;;;;;;;;2074531;28;19913;-83
2022/07/05 00:43:27;;;;;;;;;;;;;;;;;;2073832;28;20272;-83
2022/07/05 00:44:32;;;;;;;;;;;;;;;;;;2074074;28;19992;-86
2022/07/05 00:45:32;;;;;;;;;;;;;;;;;;2073846;28;19917;-84
2022/07/05 00:46:32;;;;;;;;;;;;;;;;;;2074071;28;19913;-85
2022/07/05 00:47:33;;;;;;;;;;;;;;;;;;2074021;28;20465;-86
2022/07/05 00:48:33;;;;;;;;;;;;;;;;;;2074069;28;19925;-85
2022/07/05 00:49:34;;;;;;;;;;;;;;;;;;2073686;28;19914;-85
2022/07/05 00:50:34;;;;;;;;;;;;;;;;;;2073955;28;19913;-87
2022/07/05 00:51:36;;;;;;;;;;;;;;;;;;2074022;28;19913;-85
2022/07/05 00:52:36;;;;;;;;;;;;;;;;;;2073919;28;20365;-85
2022/07/05 00:53:40;;;;;;;;;;;;;;;;;;2065710;28;19917;-84
2022/07/05 00:54:40;;;;;;;;;;;;;;;;;;2074108;28;19914;-84
2022/07/05 00:55:42;;;;;;;;;;;;;;;;;;2074537;28;19971;-85
2022/07/05 00:56:43;;;;;;;;;;;;;;;;;;2074135;28;19928;-85
2022/07/05 00:57:43;;;;;;;;;;;;;;;;;;2081932;28;20320;-84
2022/07/05 00:58:43;;;;;;;;;;;;;;;;;;2073978;28;19917;-82
2022/07/05 00:59:44;;;;;;;;;;;;;;;;;;2073684;28;20593;-86
2022/07/05 01:00:44;;;;;;;;;;;;;;;;;;2074118;28;19925;-83
2022/07/05 01:01:44;;;;;;;;;;;;;;;;;;2073720;28;20371;-86
2022/07/05 01:02:44;;;;;;;;;;;;;;;;;;2073996;28;19913;-83
2022/07/05 01:03:45;;;;;;;;;;;;;;;;;;2074443;28;19913;-86
2022/07/05 01:04:47;;;;;;;;;;;;;;;;;;2074436;28;20351;-85
2022/07/05 01:05:47;;;;;;;;;;;;;;;;;;2073841;28;19917;-84
2022/07/05 01:06:49;;;;;;;;;;;;;;;;;;2073825;28;19963;-84
2022/07/05 01:07:49;;;;;;;;;;;;;;;;;;2074239;28;19918;-84
2022/07/05 01:08:49;;;;;;;;;;;;;;;;;;2074290;28;20355;-83
2022/07/05 01:09:49;;;;;;;;;;;;;;;;;;2074147;28;19913;-85
2022/07/05 01:10:51;;;;;;;;;;;;;;;;;;2074217;28;19914;-84
2022/07/05 01:11:52;;;;;;;;;;;;;;;;;;2073663;28;19913;-84
2022/07/05 01:12:53;;;;;;;;;;;;;;;;;;2073775;28;19921;-85
2022/07/05 01:13:53;;;;;;;;;;;;;;;;;;2074251;28;19914;-82
2022/07/05 01:14:54;;;;;;;;;;;;;;;;;;2074174;28;20498;-84
2022/07/05 01:15:55;;;;;;;;;;;;;;;;;;2074042;28;19913;-84
2022/07/05 01:16:55;;;;;;;;;;;;;;;;;;2074012;28;19983;-84
2022/07/05 01:17:55;;;;;;;;;;;;;;;;;;2074416;28;19914;-84
2022/07/05 01:18:56;;;;;;;;;;;;;;;;;;2074057;28;20294;-84
2022/07/05 01:19:56;;;;;;;;;;;;;;;;;;2074782;28;19913;-85
2022/07/05 01:20:56;;;;;;;;;;;;;;;;;;2074129;28;19924;-84
2022/07/05 01:21:57;;;;;;;;;;;;;;;;;;2073478;28;20283;-84
2022/07/05 01:22:59;;;;;;;;;;;;;;;;;;2073619;28;19937;-83
2022/07/05 01:24:00;;;;;;;;;;;;;;;;;;2074149;28;19944;-84
2022/07/05 01:25:00;;;;;;;;;;;;;;;;;;2073526;28;19937;-84
2022/07/05 01:26:04;;;;;;;;;;;;;;;;;;2073863;28;19914;-85
2022/07/05 01:27:05;;;;;;;;;;;;;;;;;;2074033;28;19971;-85
2022/07/05 01:28:06;;;;;;;;;;;;;;;;;;2074434;28;19940;-87
2022/07/05 01:29:08;;;;;;;;;;;;;;;;;;2074163;28;19940;-84
2022/07/05 01:30:09;;;;;;;;;;;;;;;;;;2074122;28;19917;-85
2022/07/05 01:31:09;;;;;;;;;;;;;;;;;;2073870;28;20012;-84
2022/07/05 01:32:10;;;;;;;;;;;;;;;;;;2073495;28;19917;-85
2022/07/05 01:33:10;;;;;;;;;;;;;;;;;;2073647;28;19921;-84
2022/07/05 01:34:11;;;;;;;;;;;;;;;;;;2074115;28;19920;-83
2022/07/05 01:35:12;;;;;;;;;;;;;;;;;;2073363;28;19914;-84
2022/07/05 01:36:13;;;;;;;;;;;;;;;;;;2073377;28;19918;-86
2022/07/05 01:37:13;;;;;;;;;;;;;;;;;;2073968;28;20325;-85
2022/07/05 01:38:17;;;;;;;;;;;;;;;;;;2074293;28;19921;-84
2022/07/05 01:39:18;;;;;;;;;;;;;;;;;;2073576;28;19949;-85
2022/07/05 01:40:19;;;;;;;;;;;;;;;;;;2065603;28;20421;-85
2022/07/05 01:41:19;;;;;;;;;;;;;;;;;;2073563;28;19917;-84
2022/07/05 01:42:19;;;;;;;;;;;;;;;;;;2073433;28;20366;-85
2022/07/05 01:43:23;;;;;;;;;;;;;;;;;;2073379;28;19925;-84
2022/07/05 01:44:24;;;;;;;;;;;;;;;;;;2073866;28;19918;-84
2022/07/05 01:45:39;;;;;;;;;;;;;;;;;;2073998;28;19913;-84
2022/07/05 01:46:40;;;;;;;;;;;;;;;;;;2073885;28;19925;-85
2022/07/05 01:47:45;;;;;;;;;;;;;;;;;;2074186;28;20420;-85
2022/07/05 01:48:46;;;;;;;;;;;;;;;;;;2074128;28;19914;-83
2022/07/05 01:49:48;;;;;;;;;;;;;;;;;;2074092;28;19918;-86
2022/07/05 01:50:51;;;;;;;;;;;;;;;;;;2074107;28;20351;-86
2022/07/05 01:51:55;;;;;;;;;;;;;;;;;;2073414;28;19924;-85
2022/07/05 01:52:56;;;;;;;;;;;;;;;;;;2073480;28;20366;-85
2022/07/05 01:53:56;;;;;;;;;;;;;;;;;;2074078;28;19936;-84
2022/07/05 01:54:58;;;;;;;;;;;;;;;;;;2074145;28;20374;-84
2022/07/05 01:55:59;;;;;;;;;;;;;;;;;;2073277;28;20040;-84
2022/07/05 01:56:59;;;;;;;;;;;;;;;;;;2073233;28;20349;-84
2022/07/05 01:58:00;;;;;;;;;;;;;;;;;;2073817;28;19917;-84
2022/07/05 01:59:00;;;;;;;;;;;;;;;;;;2073910;28;19921;-84
2022/07/05 02:00:04;;;;;;;;;;;;;;;;;;2073765;28;19913;-84
2022/07/05 02:01:04;;;;;;;;;;;;;;;;;;2071088;28;19922;-84
2022/07/05 02:02:05;;;;;;;;;;;;;;;;;;2073607;28;19979;-84
2022/07/05 02:03:08;;;;;;;;;;;;;;;;;;2073651;28;19914;-84
2022/07/05 02:04:09;;;;;;;;;;;;;;;;;;2073816;28;20284;-84
2022/07/05 02:05:10;;;;;;;;;;;;;;;;;;2073803;28;19914;-84
2022/07/05 02:06:11;;;;;;;;;;;;;;;;;;2073276;28;19913;-85
2022/07/05 02:07:11;;;;;;;;;;;;;;;;;;2073833;28;19917;-85
2022/07/05 02:08:12;;;;;;;;;;;;;;;;;;2073746;28;19917;-86
2022/07/05 02:09:12;;;;;;;;;;;;;;;;;;2073613;28;20374;-86
2022/07/05 02:10:12;;;;;;;;;;;;;;;;;;2073762;28;19917;-84
2022/07/05 02:11:13;;;;;;;;;;;;;;;;;;2073637;28;19923;-84
2022/07/05 02:12:13;;;;;;;;;;;;;;;;;;2073731;28;19980;-84
2022/07/05 02:13:14;;;;;;;;;;;;;;;;;;2073867;28;19917;-85
2022/07/05 02:14:15;;;;;;;;;;;;;;;;;;2073625;28;19917;-85
2022/07/05 02:15:17;;;;;;;;;;;;;;;;;;2073103;28;19913;-84
2022/07/05 02:16:29;;;;;;;;;;;;;;;;;;2073336;28;19915;-84
2022/07/05 02:17:29;;;;;;;;;;;;;;;;;;2073228;28;20016;-84
2022/07/05 02:18:29;;;;;;;;;;;;;;;;;;2072850;28;20355;-84
2022/07/05 02:19:29;;;;;;;;;;;;;;;;;;2072991;28;19928;-85
2022/07/05 02:20:30;;;;;;;;;;;;;;;;;;2073701;28;19918;-85
2022/07/05 02:21:31;;;;;;;;;;;;;;;;;;2073695;28;20086;-86
2022/07/05 02:22:32;;;;;;;;;;;;;;;;;;2073654;28;19921;-84
2022/07/05 02:23:32;;;;;;;;;;;;;;;;;;2073278;28;19927;-85
2022/07/05 02:24:33;;;;;;;;;;;;;;;;;;2073138;28;19924;-84
2022/07/05 02:25:35;;;;;;;;;;;;;;;;;;2073574;28;19925;-84
2022/07/05 02:26:36;;;;;;;;;;;;;;;;;;2073822;28;20075;-84
2022/07/05 02:27:36;;;;;;;;;;;;;;;;;;2072979;28;19921;-84
2022/07/05 02:28:36;;;;;;;;;;;;;;;;;;2073111;28;19917;-84
2022/07/05 02:29:37;;;;;;;;;;;;;;;;;;2081209;28;20007;-85
2022/07/05 02:30:37;;;;;;;;;;;;;;;;;;2081353;28;20385;-85
2022/07/05 02:31:37;;;;;;;;;;;;;;;;;;2073461;28;19913;-85
2022/07/05 02:32:37;;;;;;;;;;;;;;;;;;2073383;28;19922;-85
2022/07/05 02:33:38;;;;;;;;;;;;;;;;;;2073527;28;20020;-85
2022/07/05 02:34:38;;;;;;;;;;;;;;;;;;2073579;28;19945;-85
2022/07/05 02:35:38;;;;;;;;;;;;;;;;;;2073523;28;19920;-85
2022/07/05 02:36:39;;;;;;;;;;;;;;;;;;2076818;28;19987;-85
2022/07/05 02:37:39;;;;;;;;;;;;;;;;;;2073035;28;19940;-85
2022/07/05 02:38:40;;;;;;;;;;;;;;;;;;2072909;28;19948;-84
2022/07/05 02:39:40;;;;;;;;;;;;;;;;;;2072952;28;19957;-85
2022/07/05 02:40:40;;;;;;;;;;;;;;;;;;2065023;28;20315;-85
2022/07/05 02:41:41;;;;;;;;;;;;;;;;;;2073302;28;20449;-85
2022/07/05 02:42:41;;;;;;;;;;;;;;;;;;2073168;28;19918;-85
2022/07/05 02:43:43;;;;;;;;;;;;;;;;;;2073160;28;20359;-85
2022/07/05 02:44:44;;;;;;;;;;;;;;;;;;2065333;28;19924;-84
2022/07/05 02:45:44;;;;;;;;;;;;;;;;;;2072966;28;20290;-85
2022/07/05 02:46:47;;;;;;;;;;;;;;;;;;2073345;28;19924;-85
2022/07/05 02:47:47;;;;;;;;;;;;;;;;;;2075234;28;19914;-85
2022/07/05 02:48:47;;;;;;;;;;;;;;;;;;2074919;28;19944;-85
2022/07/05 02:49:47;;;;;;;;;;;;;;;;;;2074684;28;19968;-85
2022/07/05 02:50:48;;;;;;;;;;;;;;;;;;2074487;28;20000;-84
2022/07/05 02:51:50;;;;;;;;;;;;;;;;;;2074920;28;19967;-84
2022/07/05 02:52:51;;;;;;;;;;;;;;;;;;2074490;28;19918;-84
2022/07/05 02:53:51;;;;;;;;;;;;;;;;;;2074468;28;20359;-84
2022/07/05 02:54:51;;;;;;;;;;;;;;;;;;2074519;28;20180;-84
2022/07/05 02:55:51;;;;;;;;;;;;;;;;;;2074553;28;19940;-84
2022/07/05 02:56:52;;;;;;;;;;;;;;;;;;2074767;28;20290;-85
2022/07/05 02:57:55;;;;;;;;;;;;;;;;;;2075245;28;19918;-85
2022/07/05 02:58:55;;;;;;;;;;;;;;;;;;2074734;28;19913;-84
2022/07/05 02:59:56;;;;;;;;;;;;;;;;;;2074729;28;19914;-86
2022/07/05 03:00:56;;;;;;;;;;;;;;;;;;2074547;28;19948;-83
2022/07/05 03:01:56;;;;;;;;;;;;;;;;;;2074456;28;19924;-84
2022/07/05 03:02:57;;;;;;;;;;;;;;;;;;2074168;28;19913;-84
2022/07/05 03:03:59;;;;;;;;;;;;;;;;;;2074291;28;19925;-85
2022/07/05 03:05:01;;;;;;;;;;;;;;;;;;2074678;28;19983;-84
2022/07/05 03:06:01;;;;;;;;;;;;;;;;;;2074748;28;19921;-84
2022/07/05 03:07:01;;;;;;;;;;;;;;;;;;2074885;28;19917;-84
2022/07/05 03:08:02;;;;;;;;;;;;;;;;;;2074666;28;19917;-84
2022/07/05 03:09:02;;;;;;;;;;;;;;;;;;2074539;28;20019;-84
2022/07/05 03:10:03;;;;;;;;;;;;;;;;;;2074945;28;19987;-84
2022/07/05 03:11:03;;;;;;;;;;;;;;;;;;2082240;28;19932;-84
2022/07/05 03:12:03;;;;;;;;;;;;;;;;;;2074602;28;19917;-84
2022/07/05 03:13:04;;;;;;;;;;;;;;;;;;2074941;28;19940;-84
2022/07/05 03:14:04;;;;;;;;;;;;;;;;;;2075325;28;20293;-84
2022/07/05 03:15:05;;;;;;;;;;;;;;;;;;2075228;28;19914;-84
2022/07/05 03:16:08;;;;;;;;;;;;;;;;;;2075820;28;20346;-86
2022/07/05 03:17:09;;;;;;;;;;;;;;;;;;2077595;28;19924;-84
2022/07/05 03:18:09;;;;;;;;;;;;;;;;;;2077749;28;20311;-84
2022/07/05 03:19:10;;;;;;;;;;;;;;;;;;2078067;28;19913;-83
2022/07/05 03:20:10;;;;;;;;;;;;;;;;;;2077784;28;19921;-85
2022/07/05 03:21:11;;;;;;;;;;;;;;;;;;2078771;28;19925;-84
2022/07/05 03:22:11;;;;;;;;;;;;;;;;;;2079591;28;19969;-86
2022/07/05 03:23:11;;;;;;;;;;;;;;;;;;2079806;28;20341;-85
2022/07/05 03:24:11;;;;;;;;;;;;;;;;;;2076949;28;20122;-87
2022/07/05 03:25:12;;;;;;;;;;;;;;;;;;2077079;28;19952;-85
2022/07/05 03:26:15;;;;;;;;;;;;;;;;;;2077791;28;19917;-86
2022/07/05 03:27:15;;;;;;;;;;;;;;;;;;2077010;28;19988;-86
2022/07/05 03:28:15;;;;;;;;;;;;;;;;;;2075193;28;19921;-84
2022/07/05 03:29:15;;;;;;;;;;;;;;;;;;2074114;28;19913;-85
2022/07/05 03:30:18;;;;;;;;;;;;;;;;;;2075133;28;19925;-85
2022/07/05 03:31:28;;;;;;;;;;;;;;;;;;2075259;28;19925;-86
2022/07/05 03:32:30;;;;;;;;;;;;;;;;;;2078232;28;19914;-85
2022/07/05 03:33:33;;;;;;;;;;;;;;;;;;2075180;28;19996;-85
2022/07/05 03:34:38;;;;;;;;;;;;;;;;;;2074685;28;19913;-86
2022/07/05 03:35:38;;;;;;;;;;;;;;;;;;2075165;28;19971;-85
2022/07/05 03:36:38;;;;;;;;;;;;;;;;;;2074798;28;19921;-85
2022/07/05 03:37:39;;;;;;;;;;;;;;;;;;2075518;28;20278;-85
2022/07/05 03:38:41;;;;;;;;;;;;;;;;;;2075204;28;19913;-85
2022/07/05 03:39:42;;;;;;;;;;;;;;;;;;2074355;28;19925;-84
2022/07/05 03:40:42;;;;;;;;;;;;;;;;;;2062954;28;20431;-84
2022/07/05 03:41:42;;;;;;;;;;;;;;;;;;2072974;28;20137;-86
2022/07/05 03:42:43;;;;;;;;;;;;;;;;;;2073732;28;19917;-85
2022/07/05 03:43:43;;;;;;;;;;;;;;;;;;2070920;28;19968;-85
2022/07/05 03:44:45;;;;;;;;;;;;;;;;;;2073650;28;20384;-85
2022/07/05 03:45:46;;;;;;;;;;;;;;;;;;2060710;28;19932;-85
2022/07/05 03:46:46;;;;;;;;;;;;;;;;;;2063173;28;19917;-84
2022/07/05 03:47:46;;;;;;;;;;;;;;;;;;2069346;28;19925;-85
2022/07/05 03:48:47;;;;;;;;;;;;;;;;;;2077564;28;20059;-84
2022/07/05 03:49:47;;;;;;;;;;;;;;;;;;2068938;28;19917;-84
2022/07/05 03:50:47;;;;;;;;;;;;;;;;;;2074264;28;19914;-84
2022/07/05 03:51:48;;;;;;;;;;;;;;;;;;2076237;28;19992;-85
2022/07/05 03:52:48;;;;;;;;;;;;;;;;;;2075130;28;19918;-83
2022/07/05 03:53:48;;;;;;;;;;;;;;;;;;2075422;28;19913;-84
2022/07/05 03:54:49;;;;;;;;;;;;;;;;;;2073962;28;19925;-84
2022/07/05 03:55:49;;;;;;;;;;;;;;;;;;2073362;28;19948;-84
2022/07/05 03:56:49;;;;;;;;;;;;;;;;;;2073940;28;20374;-86
2022/07/05 03:57:49;;;;;;;;;;;;;;;;;;2074339;28;19960;-86
2022/07/05 03:58:50;;;;;;;;;;;;;;;;;;2073863;28;19944;-86
2022/07/05 03:59:50;;;;;;;;;;;;;;;;;;2074502;28;19980;-85
2022/07/05 04:00:50;;;;;;;;;;;;;;;;;;2074838;28;19924;-86
2022/07/05 04:01:53;;;;;;;;;;;;;;;;;;2074180;28;20396;-86
2022/07/05 04:02:53;;;;;;;;;;;;;;;;;;2071313;28;19929;-85
2022/07/05 04:03:56;;;;;;;;;;;;;;;;;;2075983;28;19957;-86
2022/07/05 04:04:56;;;;;;;;;;;;;;;;;;2076030;28;20339;-85
2022/07/05 04:05:59;;;;;;;;;;;;;;;;;;2073185;28;19952;-88
2022/07/05 04:06:59;;;;;;;;;;;;;;;;;;2074306;28;19988;-85
2022/07/05 04:08:03;;;;;;;;;;;;;;;;;;2074759;28;19929;-85
2022/07/05 04:09:05;;;;;;;;;;;;;;;;;;2066597;28;19929;-85
2022/07/05 04:10:08;;;;;;;;;;;;;;;;;;2071629;28;19913;-84
2022/07/05 04:11:10;;;;;;;;;;;;;;;;;;2074710;28;19922;-85
2022/07/05 04:12:10;;;;;;;;;;;;;;;;;;2074156;28;19917;-82
2022/07/05 04:13:10;;;;;;;;;;;;;;;;;;2074107;28;20088;-84
2022/07/05 04:14:10;;;;;;;;;;;;;;;;;;2066199;28;19920;-85
2022/07/05 04:15:11;;;;;;;;;;;;;;;;;;2066247;28;19968;-87
2022/07/05 04:16:12;;;;;;;;;;;;;;;;;;2068139;28;20020;-87
2022/07/05 04:17:12;;;;;;;;;;;;;;;;;;2074732;28;19921;-85
2022/07/05 04:18:12;;;;;;;;;;;;;;;;;;2074003;28;20003;-86
2022/07/05 04:19:15;;;;;;;;;;;;;;;;;;2073988;28;19926;-85
2022/07/05 04:20:15;;;;;;;;;;;;;;;;;;2068515;28;19926;-88
2022/07/05 04:21:15;;;;;;;;;;;;;;;;;;2074161;28;19913;-87
2022/07/05 04:22:18;;;;;;;;;;;;;;;;;;2072889;28;20282;-85
2022/07/05 04:23:18;;;;;;;;;;;;;;;;;;2074339;28;19917;-85
2022/07/05 04:24:18;;;;;;;;;;;;;;;;;;2073885;28;20369;-87
2022/07/05 04:25:21;;;;;;;;;;;;;;;;;;2074286;28;20009;-85
2022/07/05 04:26:21;;;;;;;;;;;;;;;;;;2074928;28;20437;-87
2022/07/05 04:27:21;;;;;;;;;;;;;;;;;;2073555;28;19922;-84
2022/07/05 04:28:22;;;;;;;;;;;;;;;;;;2074342;28;19921;-86
2022/07/05 04:29:22;;;;;;;;;;;;;;;;;;2082359;28;19937;-86
2022/07/05 04:30:24;;;;;;;;;;;;;;;;;;2084009;28;19989;-86
2022/07/05 04:31:24;;;;;;;;;;;;;;;;;;2083972;28;19912;-85
2022/07/05 04:32:25;;;;;;;;;;;;;;;;;;2083919;28;19917;-86
2022/07/05 04:33:25;;;;;;;;;;;;;;;;;;2083766;28;19964;-91
2022/07/05 04:34:27;;;;;;;;;;;;;;;;;;2080363;28;20004;-83
2022/07/05 04:35:28;;;;;;;;;;;;;;;;;;2076812;28;19924;-85
2022/07/05 04:36:28;;;;;;;;;;;;;;;;;;2076879;28;19924;-87
2022/07/05 04:37:30;;;;;;;;;;;;;;;;;;2076289;28;20023;-87
2022/07/05 04:38:31;;;;;;;;;;;;;;;;;;2066881;28;20311;-86
2022/07/05 04:39:31;;;;;;;;;;;;;;;;;;2074439;28;19913;-84
2022/07/05 04:40:31;;;;;;;;;;;;;;;;;;2073385;28;20294;-85
2022/07/05 04:41:32;;;;;;;;;;;;;;;;;;2074625;28;20130;-85
2022/07/05 04:42:32;;;;;;;;;;;;;;;;;;2074060;28;20028;-85
2022/07/05 04:43:33;;;;;;;;;;;;;;;;;;2073927;28;20426;-86
2022/07/05 04:44:41;;;;;;;;;;;;;;;;;;2066096;28;19918;-86
2022/07/05 04:45:42;;;;;;;;;;;;;;;;;;2067327;28;19949;-85
2022/07/05 04:46:42;;;;;;;;;;;;;;;;;;2072524;28;20465;-86
2022/07/05 04:47:43;;;;;;;;;;;;;;;;;;2072744;28;19940;-86
2022/07/05 04:48:43;;;;;;;;;;;;;;;;;;2074213;28;19913;-85
2022/07/05 04:49:59;;;;;;;;;;;;;;;;;;2073822;28;20442;-86
2022/07/05 04:51:02;;;;;;;;;;;;;;;;;;2074703;28;19921;-85
2022/07/05 04:52:02;;;;;;;;;;;;;;;;;;2074378;28;19914;-84
2022/07/05 04:53:03;;;;;;;;;;;;;;;;;;2073816;28;19935;-85
2022/07/05 04:54:03;;;;;;;;;;;;;;;;;;2074114;28;20377;-85
2022/07/05 04:55:04;;;;;;;;;;;;;;;;;;2073980;28;20381;-86
2022/07/05 04:56:05;;;;;;;;;;;;;;;;;;2073247;28;20378;-86
2022/07/05 04:59:14;;;;;;;;;;;;;;;;;;2062775;28;19922;-85
2022/07/05 05:00:22;;;;;;;;;;;;;;;;;;2062291;28;19956;-86
2022/07/05 05:01:40;;;;;;;;;;;;;;;;;;;;;
2022/07/05 05:03:04;;;;;;;;;;;;;;;;;;2071261;28;19957;-86
2022/07/05 05:04:10;;;;;;;;;;;;;;;;;;2073368;28;19925;-86
2022/07/05 05:05:31;;;;;;;;;;;;;;;;;;2078892;28;19914;-85
2022/07/05 05:06:31;;;;;;;;;;;;;;;;;;2079065;28;20000;-86
2022/07/05 05:07:41;;;;;;;;;;;;;;;;;;;;;
2022/07/05 05:08:49;;;;;;;;;;;;;;;;;;2073691;28;19917;-85
2022/07/05 05:09:52;;;;;;;;;;;;;;;;;;2078502;28;20007;-87
2022/07/05 05:10:58;;;;;;;;;;;;;;;;;;2081354;28;19979;-87
2022/07/05 05:12:01;;;;;;;;;;;;;;;;;;2075966;28;19921;-87
2022/07/05 05:13:24;;;;;;;;;;;;;;;;;;2080782;28;19913;-88
2022/07/05 05:14:30;;;;;;;;;;;;;;;;;;2078963;28;19914;-88
2022/07/05 05:15:40;;;;;;;;;;;;;;;;;;2081136;28;19913;-87
2022/07/05 05:16:40;;;;;;;;;;;;;;;;;;2077086;28;19933;-86
2022/07/05 05:17:41;;;;;;;;;;;;;;;;;;2073073;28;20479;-88
2022/07/05 05:18:57;;;;;;;;;;;;;;;;;;2073607;28;19913;-89
2022/07/05 05:19:57;;;;;;;;;;;;;;;;;;2068241;28;20357;-88
2022/07/05 05:21:00;;;;;;;;;;;;;;;;;;2065404;28;19925;-88
2022/07/05 05:22:00;;;;;;;;;;;;;;;;;;2064761;28;19918;-88
2022/07/05 05:23:12;;;;;;;;;;;;;;;;;;2065106;28;19970;-87
2022/07/05 05:24:22;;;;;;;;;;;;;;;;;;2071081;28;19925;-88
2022/07/05 05:25:23;;;;;;;;;;;;;;;;;;2078312;28;19925;-87
2022/07/05 05:26:28;;;;;;;;;;;;;;;;;;2070013;28;20012;-88
2022/07/05 05:27:29;;;;;;;;;;;;;;;;;;2071098;28;20198;-87
2022/07/05 05:28:32;;;;;;;;;;;;;;;;;;2076910;28;19917;-88
2022/07/05 05:29:35;;;;;;;;;;;;;;;;;;2071798;28;20036;-87
2022/07/05 05:30:35;;;;;;;;;;;;;;;;;;2068906;28;19967;-88
2022/07/05 05:31:40;;;;;;;;;;;;;;;;;;2072618;28;19984;-88
2022/07/05 05:32:50;;;;;;;;;;;;;;;;;;2070220;28;19926;-88
2022/07/05 05:33:52;;;;;;;;;;;;;;;;;;2072513;28;20007;-85
2022/07/05 05:34:55;;;;;;;;;;;;;;;;;;2072493;28;20496;-87
2022/07/05 05:35:56;;;;;;;;;;;;;;;;;;2073040;28;19917;-85
2022/07/05 05:37:01;;;;;;;;;;;;;;;;;;2072714;28;19924;-85
2022/07/05 05:38:01;;;;;;;;;;;;;;;;;;2072403;28;19914;-85
2022/07/05 05:39:02;;;;;;;;;;;;;;;;;;2076991;28;20259;-85
2022/07/05 05:40:05;;;;;;;;;;;;;;;;;;2075467;28;19998;-85
2022/07/05 05:41:06;;;;;;;;;;;;;;;;;;2071013;28;19913;-84
2022/07/05 05:42:06;;;;;;;;;;;;;;;;;;2071100;28;20384;-84
2022/07/05 05:43:06;;;;;;;;;;;;;;;;;;2073486;28;19972;-85
2022/07/05 05:44:07;;;;;;;;;;;;;;;;;;2072933;28;20511;-85
2022/07/05 05:45:07;;;;;;;;;;;;;;;;;;2073721;28;19964;-86
2022/07/05 05:46:08;;;;;;;;;;;;;;;;;;2068000;28;19922;-86
2022/07/05 05:47:11;;;;;;;;;;;;;;;;;;2073626;28;19999;-86
2022/07/05 05:48:14;;;;;;;;;;;;;;;;;;2074272;28;19914;-86
2022/07/05 05:49:14;;;;;;;;;;;;;;;;;;2074722;28;20060;-86
2022/07/05 05:50:17;;;;;;;;;;;;;;;;;;2074626;28;20027;-87
2022/07/05 05:51:18;;;;;;;;;;;;;;;;;;2073774;28;19921;-87
2022/07/05 05:52:18;;;;;;;;;;;;;;;;;;2074249;28;19913;-89
2022/07/05 05:53:21;;;;;;;;;;;;;;;;;;2074452;28;19920;-88
2022/07/05 05:54:21;;;;;;;;;;;;;;;;;;2074373;28;19961;-86
2022/07/05 05:55:22;;;;;;;;;;;;;;;;;;2073418;28;19979;-88
2022/07/05 05:56:22;;;;;;;;;;;;;;;;;;2074136;28;19913;-91
2022/07/05 05:57:22;;;;;;;;;;;;;;;;;;2074137;28;19921;-88
2022/07/05 05:58:23;;;;;;;;;;;;;;;;;;2073887;28;19918;-85
2022/07/05 05:59:23;;;;;;;;;;;;;;;;;;2073790;28;19925;-86
2022/07/05 06:00:24;;;;;;;;;;;;;;;;;;2073629;28;19917;-87
2022/07/05 06:01:24;;;;;;;;;;;;;;;;;;2073678;28;19913;-89
2022/07/05 06:02:27;;;;;;;;;;;;;;;;;;2073573;28;19914;-91
2022/07/05 06:03:28;;;;;;;;;;;;;;;;;;2073987;28;19929;-90
2022/07/05 06:04:28;;;;;;;;;;;;;;;;;;2074130;28;20351;-90
2022/07/05 06:05:36;;;;;;;;;;;;;;;;;;2074234;28;19941;-87
2022/07/05 06:06:36;;;;;;;;;;;;;;;;;;2081691;28;19913;-90
2022/07/05 06:07:47;;;;;;;;;;;;;;;;;;2080855;28;19917;-87
2022/07/05 06:08:47;;;;;;;;;;;;;;;;;;2071935;28;19976;-88
2022/07/05 06:09:48;;;;;;;;;;;;;;;;;;2071810;28;20362;-88
2022/07/05 06:10:48;;;;;;;;;;;;;;;;;;2072859;28;19921;-87
2022/07/05 06:11:48;;;;;;;;;;;;;;;;;;2073333;28;20406;-88
2022/07/05 06:12:49;;;;;;;;;;;;;;;;;;2077188;28;20361;-88
2022/07/05 06:13:50;;;;;;;;;;;;;;;;;;2076339;28;19916;-88
2022/07/05 06:14:50;;;;;;;;;;;;;;;;;;2073078;28;20274;-89
2022/07/05 06:15:50;;;;;;;;;;;;;;;;;;2073251;28;19921;-88
2022/07/05 06:16:50;;;;;;;;;;;;;;;;;;2073378;28;19914;-88
2022/07/05 06:17:51;;;;;;;;;;;;;;;;;;2073798;28;19917;-88
2022/07/05 06:18:51;;;;;;;;;;;;;;;;;;2073769;28;19913;-87
2022/07/05 06:19:51;;;;;;;;;;;;;;;;;;2074107;28;19913;-86
2022/07/05 06:20:51;;;;;;;;;;;;;;;;;;2073943;28;19917;-86
2022/07/05 06:21:54;;;;;;;;;;;;;;;;;;2072037;28;20260;-89
2022/07/05 06:22:55;;;;;;;;;;;;;;;;;;2073457;28;19917;-91
2022/07/05 06:23:55;;;;;;;;;;;;;;;;;;2073394;28;20342;-88
2022/07/05 06:24:55;;;;;;;;;;;;;;;;;;2071644;28;20294;-87
2022/07/05 06:25:58;;;;;;;;;;;;;;;;;;2072107;28;19921;-86
2022/07/05 06:27:00;;;;;;;;;;;;;;;;;;2073155;28;19930;-87
2022/07/05 06:28:04;;;;;;;;;;;;;;;;;;2080856;28;19956;-84
2022/07/05 06:29:04;;;;;;;;;;;;;;;;;;2073458;28;19917;-85
2022/07/05 06:30:05;;;;;;;;;;;;;;;;;;2073968;28;19924;-87
2022/07/05 06:31:05;;;;;;;;;;;;;;;;;;2073942;28;19971;-86
2022/07/05 06:32:06;;;;;;;;;;;;;;;;;;2073976;28;19913;-86
2022/07/05 06:33:06;;;;;;;;;;;;;;;;;;2074238;28;19920;-87
2022/07/05 06:34:09;;;;;;;;;;;;;;;;;;2074163;28;19913;-87
2022/07/05 06:35:09;;;;;;;;;;;;;;;;;;2074332;28;19925;-86
2022/07/05 06:36:10;;;;;;;;;;;;;;;;;;2073406;28;19917;-86
2022/07/05 06:37:10;;;;;;;;;;;;;;;;;;2071317;28;19932;-86
2022/07/05 06:38:10;;;;;;;;;;;;;;;;;;2071929;28;19917;-86
2022/07/05 06:39:13;;;;;;;;;;;;;;;;;;2071182;28;19925;-86
2022/07/05 06:40:17;;;;;;;;;;;;;;;;;;2068349;28;19926;-88
2022/07/05 06:41:19;;;;;;;;;;;;;;;;;;2070573;28;19933;-88
2022/07/05 06:42:20;;;;;;;;;;;;;;;;;;2072067;28;19960;-87
2022/07/05 06:43:20;;;;;;;;;;;;;;;;;;2069862;28;20329;-86
2022/07/05 06:44:20;;;;;;;;;;;;;;;;;;2071084;28;19921;-88
2022/07/05 06:45:23;;;;;;;;;;;;;;;;;;2069837;28;19961;-88
2022/07/05 06:46:24;;;;;;;;;;;;;;;;;;2070105;28;19925;-90
2022/07/05 06:47:24;;;;;;;;;;;;;;;;;;2070728;28;20658;-88
2022/07/05 06:48:24;;;;;;;;;;;;;;;;;;2072453;28;19968;-87
2022/07/05 06:49:24;;;;;;;;;;;;;;;;;;2074597;28;19960;-87
2022/07/05 06:50:25;;;;;;;;;;;;;;;;;;2070866;28;19995;-87
2022/07/05 06:51:25;;;;;;;;;;;;;;;;;;2073273;28;20373;-88
2022/07/05 06:52:26;;;;;;;;;;;;;;;;;;2076134;28;19925;-88
2022/07/05 06:53:26;;;;;;;;;;;;;;;;;;2073183;28;19968;-86
2022/07/05 06:54:26;;;;;;;;;;;;;;;;;;2072253;28;20374;-87
2022/07/05 06:55:27;;;;;;;;;;;;;;;;;;2073046;28;20020;-89
2022/07/05 06:56:28;;;;;;;;;;;;;;;;;;2072789;28;19921;-90
2022/07/05 06:57:28;;;;;;;;;;;;;;;;;;2078103;28;20359;-87
2022/07/05 06:58:29;;;;;;;;;;;;;;;;;;2076246;28;20361;-87
2022/07/05 06:59:29;;;;;;;;;;;;;;;;;;2071266;28;19921;-89
2022/07/05 07:00:31;;;;;;;;;;;;;;;;;;2072727;28;19917;-90
2022/07/05 07:01:31;;;;;;;;;;;;;;;;;;2073149;28;19924;-88
2022/07/05 07:02:31;;;;;;;;;;;;;;;;;;2073393;28;19936;-92